createdAt,value
2023-02-19T00:00:14.755Z,0.00
2023-02-19T00:01:14.776Z,0.00
2023-02-19T00:02:14.734Z,0.00
2023-02-19T00:03:14.765Z,0.00
2023-02-19T00:04:14.739Z,0.00
2023-02-19T00:05:14.734Z,0.00
2023-02-19T00:06:14.690Z,0.00
2023-02-19T00:07:14.700Z,0.00
2023-02-19T00:08:14.659Z,0.00
2023-02-19T00:09:14.718Z,0.00
2023-02-19T00:10:14.668Z,0.00
2023-02-19T00:11:14.627Z,0.00
2023-02-19T00:12:14.599Z,0.00
2023-02-19T00:13:14.609Z,0.00
2023-02-19T00:14:14.575Z,0.00
2023-02-19T00:15:14.619Z,0.00
2023-02-19T00:16:14.579Z,0.00
2023-02-19T00:17:14.565Z,0.00
2023-02-19T00:18:14.524Z,0.00
2023-02-19T00:19:14.535Z,0.00
2023-02-19T00:20:14.532Z,0.00
2023-02-19T00:21:14.502Z,0.00
2023-02-19T00:22:14.474Z,0.00
2023-02-19T00:23:14.485Z,0.00
2023-02-19T00:24:14.441Z,0.00
2023-02-19T00:25:14.485Z,0.00
2023-02-19T00:26:18.434Z,0.00
2023-02-19T00:27:14.435Z,0.00
2023-02-19T00:28:14.421Z,0.00
2023-02-19T00:29:14.414Z,0.00
2023-02-19T00:30:14.403Z,0.00
2023-02-19T00:31:14.681Z,0.00
2023-02-19T00:32:14.429Z,0.00
2023-02-19T00:33:14.376Z,0.00
2023-02-19T00:34:14.324Z,0.00
2023-02-19T00:35:14.338Z,0.00
2023-02-19T00:36:14.322Z,0.00
2023-02-19T00:37:14.308Z,0.00
2023-02-19T00:38:14.282Z,0.00
2023-02-19T00:39:14.305Z,0.00
2023-02-19T00:40:14.247Z,0.00
2023-02-19T00:41:14.257Z,0.00
2023-02-19T00:42:14.258Z,0.00
2023-02-19T00:43:14.216Z,0.00
2023-02-19T00:44:14.194Z,0.00
2023-02-19T00:45:14.200Z,0.00
2023-02-19T00:46:14.192Z,0.00
2023-02-19T00:47:14.192Z,0.00
2023-02-19T00:48:14.261Z,0.00
2023-02-19T00:49:14.173Z,0.00
2023-02-19T00:50:14.129Z,0.00
2023-02-19T00:51:14.134Z,0.00
2023-02-19T00:52:14.116Z,0.00
2023-02-19T00:53:14.092Z,0.00
2023-02-19T00:54:14.062Z,0.00
2023-02-19T00:55:14.082Z,0.00
2023-02-19T00:56:14.037Z,0.00
2023-02-19T00:57:14.084Z,0.00
2023-02-19T00:58:14.040Z,0.00
2023-02-19T00:59:14.040Z,0.00
2023-02-19T01:00:13.989Z,0.00
2023-02-19T01:01:14.036Z,0.00
2023-02-19T01:02:13.967Z,0.00
2023-02-19T01:03:13.977Z,0.00
2023-02-19T01:04:13.986Z,0.00
2023-02-19T01:05:13.915Z,0.00
2023-02-19T01:06:13.927Z,0.00
2023-02-19T01:07:13.892Z,0.00
2023-02-19T01:08:13.912Z,0.00
2023-02-19T01:09:13.882Z,0.00
2023-02-19T01:10:13.869Z,0.00
2023-02-19T01:11:13.861Z,0.00
2023-02-19T01:12:13.889Z,0.00
2023-02-19T01:13:13.813Z,0.00
2023-02-19T01:14:13.818Z,0.00
2023-02-19T01:15:13.797Z,0.00
2023-02-19T01:16:13.808Z,0.00
2023-02-19T01:17:13.757Z,0.00
2023-02-19T01:18:13.795Z,0.00
2023-02-19T01:19:13.745Z,0.00
2023-02-19T01:20:13.771Z,0.00
2023-02-19T01:21:13.706Z,0.00
2023-02-19T01:22:13.731Z,0.00
2023-02-19T01:23:13.693Z,0.00
2023-02-19T01:24:13.702Z,0.00
2023-02-19T01:25:13.653Z,0.00
2023-02-19T01:26:13.673Z,0.00
2023-02-19T01:27:13.654Z,0.00
2023-02-19T01:28:13.639Z,0.00
2023-02-19T01:29:13.600Z,0.00
2023-02-19T01:30:13.641Z,0.00
2023-02-19T01:31:14.002Z,0.00
2023-02-19T01:32:13.666Z,0.00
2023-02-19T01:33:13.579Z,0.00
2023-02-19T01:34:13.556Z,0.00
2023-02-19T01:35:13.567Z,0.00
2023-02-19T01:36:13.557Z,0.00
2023-02-19T01:37:13.536Z,0.00
2023-02-19T01:38:13.505Z,0.00
2023-02-19T01:39:13.475Z,0.00
2023-02-19T01:40:13.518Z,0.00
2023-02-19T01:41:13.466Z,0.00
2023-02-19T01:42:13.475Z,0.00
2023-02-19T01:43:13.415Z,0.00
2023-02-19T01:44:13.438Z,0.00
2023-02-19T01:45:13.393Z,0.00
2023-02-19T01:46:13.437Z,0.00
2023-02-19T01:47:13.400Z,0.00
2023-02-19T01:48:13.379Z,0.00
2023-02-19T01:49:13.346Z,0.00
2023-02-19T01:50:13.351Z,0.00
2023-02-19T01:51:13.332Z,0.00
2023-02-19T01:52:13.366Z,0.00
2023-02-19T01:53:13.311Z,0.00
2023-02-19T01:54:13.308Z,0.00
2023-02-19T01:55:13.309Z,0.00
2023-02-19T01:56:13.289Z,0.00
2023-02-19T01:57:13.270Z,0.00
2023-02-19T01:58:13.249Z,0.00
2023-02-19T01:59:13.237Z,0.00
2023-02-19T02:00:13.233Z,0.00
2023-02-19T02:01:13.569Z,0.00
2023-02-19T02:02:13.216Z,0.00
2023-02-19T02:03:13.161Z,0.00
2023-02-19T02:04:13.185Z,0.00
2023-02-19T02:05:13.129Z,0.00
2023-02-19T02:06:13.157Z,0.00
2023-02-19T02:07:13.110Z,0.00
2023-02-19T02:08:13.112Z,0.00
2023-02-19T02:09:13.108Z,0.00
2023-02-19T02:10:13.127Z,0.00
2023-02-19T02:11:13.370Z,0.00
2023-02-19T02:12:13.089Z,0.00
2023-02-19T02:13:13.046Z,0.00
2023-02-19T02:14:13.033Z,0.00
2023-02-19T02:15:13.027Z,0.00
2023-02-19T02:16:13.035Z,0.00
2023-02-19T02:17:12.990Z,0.00
2023-02-19T02:18:12.992Z,0.00
2023-02-19T02:19:12.941Z,0.00
2023-02-19T02:20:12.989Z,0.00
2023-02-19T02:21:12.929Z,0.00
2023-02-19T02:22:12.953Z,0.00
2023-02-19T02:23:12.914Z,0.00
2023-02-19T02:24:12.927Z,0.00
2023-02-19T02:25:12.878Z,0.00
2023-02-19T02:26:12.936Z,0.00
2023-02-19T02:27:12.853Z,0.00
2023-02-19T02:28:12.859Z,0.00
2023-02-19T02:29:12.817Z,0.00
2023-02-19T02:30:12.863Z,0.00
2023-02-19T02:31:13.197Z,0.00
2023-02-19T02:32:12.871Z,0.00
2023-02-19T02:33:12.774Z,0.00
2023-02-19T02:34:12.794Z,0.00
2023-02-19T02:35:12.736Z,0.00
2023-02-19T02:36:12.745Z,0.00
2023-02-19T02:37:12.743Z,0.00
2023-02-19T02:38:12.728Z,0.00
2023-02-19T02:39:12.704Z,0.00
2023-02-19T02:40:12.699Z,0.00
2023-02-19T02:41:12.954Z,0.00
2023-02-19T02:42:12.674Z,0.00
2023-02-19T02:43:12.663Z,0.00
2023-02-19T02:44:12.637Z,0.00
2023-02-19T02:45:12.602Z,0.00
2023-02-19T02:46:12.610Z,0.00
2023-02-19T02:47:12.584Z,0.00
2023-02-19T02:48:12.598Z,0.00
2023-02-19T02:49:12.548Z,0.00
2023-02-19T02:50:12.558Z,0.00
2023-02-19T02:51:12.728Z,0.00
2023-02-19T02:52:12.546Z,0.00
2023-02-19T02:53:12.526Z,0.00
2023-02-19T02:54:12.523Z,0.00
2023-02-19T02:55:12.507Z,0.00
2023-02-19T02:56:12.484Z,0.00
2023-02-19T02:57:12.454Z,0.00
2023-02-19T02:58:12.443Z,0.00
2023-02-19T02:59:12.424Z,0.00
2023-02-19T03:00:12.453Z,0.00
2023-02-19T03:01:12.967Z,0.00
2023-02-19T03:02:12.601Z,0.00
2023-02-19T03:03:12.360Z,0.00
2023-02-19T03:04:12.394Z,0.00
2023-02-19T03:05:12.360Z,0.00
2023-02-19T03:06:12.383Z,0.00
2023-02-19T03:07:12.339Z,0.00
2023-02-19T03:08:12.327Z,0.00
2023-02-19T03:09:12.317Z,0.00
2023-02-19T03:10:12.316Z,0.00
2023-02-19T03:11:12.286Z,0.00
2023-02-19T03:12:12.287Z,0.00
2023-02-19T03:13:12.236Z,0.00
2023-02-19T03:14:12.238Z,0.00
2023-02-19T03:15:12.205Z,0.00
2023-02-19T03:16:12.254Z,0.00
2023-02-19T03:17:12.210Z,0.00
2023-02-19T03:18:12.194Z,0.00
2023-02-19T03:19:12.153Z,0.00
2023-02-19T03:20:12.163Z,0.00
2023-02-19T03:21:12.403Z,0.00
2023-02-19T03:22:12.129Z,0.00
2023-02-19T03:23:12.120Z,0.00
2023-02-19T03:24:12.119Z,0.00
2023-02-19T03:25:12.078Z,0.00
2023-02-19T03:26:12.077Z,0.00
2023-02-19T03:27:12.046Z,0.00
2023-02-19T03:28:12.105Z,0.00
2023-02-19T03:29:12.062Z,0.00
2023-02-19T03:30:12.062Z,0.00
2023-02-19T03:31:12.379Z,0.00
2023-02-19T03:32:12.039Z,0.00
2023-02-19T03:33:11.963Z,0.00
2023-02-19T03:34:11.975Z,0.00
2023-02-19T03:35:11.942Z,0.00
2023-02-19T03:36:11.981Z,0.00
2023-02-19T03:37:11.914Z,0.00
2023-02-19T03:38:11.936Z,0.00
2023-02-19T03:39:18.940Z,0.00
2023-02-19T03:40:11.908Z,0.00
2023-02-19T03:41:12.199Z,0.00
2023-02-19T03:42:11.908Z,0.00
2023-02-19T03:43:11.840Z,0.00
2023-02-19T03:44:11.856Z,0.00
2023-02-19T03:45:11.826Z,0.00
2023-02-19T03:46:11.916Z,0.00
2023-02-19T03:47:11.786Z,0.00
2023-02-19T03:48:11.815Z,0.00
2023-02-19T03:49:11.794Z,0.00
2023-02-19T03:50:11.783Z,0.00
2023-02-19T03:51:11.974Z,0.00
2023-02-19T03:52:11.743Z,0.00
2023-02-19T03:53:11.770Z,0.00
2023-02-19T03:54:11.730Z,0.00
2023-02-19T03:55:11.685Z,0.00
2023-02-19T03:56:11.702Z,0.00
2023-02-19T03:57:11.655Z,0.00
2023-02-19T03:58:11.662Z,0.00
2023-02-19T03:59:11.643Z,0.00
2023-02-19T04:00:11.656Z,0.00
2023-02-19T04:01:12.067Z,0.00
2023-02-19T04:02:11.675Z,0.00
2023-02-19T04:03:11.603Z,0.00
2023-02-19T04:04:11.609Z,0.00
2023-02-19T04:05:14.010Z,0.00
2023-02-19T04:06:11.564Z,0.00
2023-02-19T04:07:11.523Z,0.00
2023-02-19T04:08:11.529Z,0.00
2023-02-19T04:09:11.503Z,0.00
2023-02-19T04:10:11.518Z,0.00
2023-02-19T04:11:11.855Z,0.00
2023-02-19T04:12:11.479Z,0.00
2023-02-19T04:13:11.460Z,0.00
2023-02-19T04:14:11.471Z,0.00
2023-02-19T04:15:11.426Z,0.00
2023-02-19T04:16:11.480Z,0.00
2023-02-19T04:17:11.413Z,0.00
2023-02-19T04:18:11.421Z,0.00
2023-02-19T04:19:11.375Z,0.00
2023-02-19T04:20:11.376Z,0.00
2023-02-19T04:21:11.690Z,0.00
2023-02-19T04:22:11.378Z,0.00
2023-02-19T04:23:11.316Z,0.00
2023-02-19T04:24:11.350Z,0.00
2023-02-19T04:25:11.297Z,0.00
2023-02-19T04:26:11.344Z,0.00
2023-02-19T04:27:11.291Z,0.00
2023-02-19T04:28:11.263Z,0.00
2023-02-19T04:29:11.238Z,0.00
2023-02-19T04:30:11.335Z,0.00
2023-02-19T04:31:11.558Z,0.00
2023-02-19T04:32:11.219Z,0.00
2023-02-19T04:33:11.209Z,0.00
2023-02-19T04:34:11.198Z,0.00
2023-02-19T04:35:11.157Z,0.00
2023-02-19T04:36:11.165Z,0.00
2023-02-19T04:37:11.134Z,0.00
2023-02-19T04:38:11.176Z,0.00
2023-02-19T04:39:11.104Z,0.00
2023-02-19T04:40:11.128Z,0.00
2023-02-19T04:41:11.421Z,0.00
2023-02-19T04:42:11.080Z,0.00
2023-02-19T04:43:11.049Z,0.00
2023-02-19T04:44:11.086Z,0.00
2023-02-19T04:45:11.024Z,0.00
2023-02-19T04:46:11.039Z,0.00
2023-02-19T04:47:10.995Z,0.00
2023-02-19T04:48:11.015Z,0.00
2023-02-19T04:49:10.967Z,0.00
2023-02-19T04:50:10.994Z,0.00
2023-02-19T04:51:11.318Z,0.00
2023-02-19T04:52:10.962Z,0.00
2023-02-19T04:53:10.937Z,0.00
2023-02-19T04:54:10.956Z,0.00
2023-02-19T04:55:10.882Z,0.00
2023-02-19T04:56:10.940Z,0.00
2023-02-19T04:57:10.860Z,0.00
2023-02-19T04:58:10.884Z,0.00
2023-02-19T04:59:10.829Z,0.00
2023-02-19T05:00:10.829Z,0.00
2023-02-19T05:01:11.193Z,0.00
2023-02-19T05:02:10.841Z,0.00
2023-02-19T05:03:10.783Z,0.00
2023-02-19T05:04:10.836Z,0.00
2023-02-19T05:05:10.764Z,0.00
2023-02-19T05:06:10.809Z,0.00
2023-02-19T05:07:10.725Z,0.00
2023-02-19T05:08:10.770Z,0.00
2023-02-19T05:09:10.706Z,0.00
2023-02-19T05:10:10.705Z,0.00
2023-02-19T05:11:11.044Z,0.00
2023-02-19T05:12:10.702Z,0.00
2023-02-19T05:13:10.697Z,0.00
2023-02-19T05:14:10.683Z,0.00
2023-02-19T05:15:10.622Z,0.00
2023-02-19T05:16:10.718Z,0.00
2023-02-19T05:17:10.591Z,0.00
2023-02-19T05:18:10.584Z,0.00
2023-02-19T05:19:10.593Z,0.00
2023-02-19T05:20:10.561Z,0.00
2023-02-19T05:21:11.029Z,0.00
2023-02-19T05:22:10.529Z,0.00
2023-02-19T05:23:10.542Z,0.00
2023-02-19T05:24:10.499Z,0.00
2023-02-19T05:25:10.506Z,0.00
2023-02-19T05:26:10.524Z,0.00
2023-02-19T05:27:10.515Z,0.00
2023-02-19T05:28:10.448Z,0.00
2023-02-19T05:29:10.446Z,0.00
2023-02-19T05:30:10.438Z,0.00
2023-02-19T05:31:10.806Z,0.00
2023-02-19T05:32:10.450Z,0.00
2023-02-19T05:33:10.394Z,0.00
2023-02-19T05:34:10.364Z,0.00
2023-02-19T05:35:10.380Z,0.00
2023-02-19T05:36:10.389Z,0.00
2023-02-19T05:37:10.371Z,0.00
2023-02-19T05:38:10.314Z,0.00
2023-02-19T05:39:10.334Z,0.00
2023-02-19T05:40:10.312Z,0.00
2023-02-19T05:41:10.637Z,0.00
2023-02-19T05:42:10.293Z,0.00
2023-02-19T05:43:10.276Z,0.00
2023-02-19T05:44:10.230Z,0.00
2023-02-19T05:45:10.237Z,0.00
2023-02-19T05:46:10.251Z,0.00
2023-02-19T05:47:10.207Z,0.00
2023-02-19T05:48:10.235Z,0.00
2023-02-19T05:49:10.191Z,0.00
2023-02-19T05:50:10.156Z,0.00
2023-02-19T05:51:10.527Z,0.00
2023-02-19T05:52:10.126Z,0.00
2023-02-19T05:53:10.135Z,0.00
2023-02-19T05:54:10.160Z,0.00
2023-02-19T05:55:10.134Z,0.00
2023-02-19T05:56:10.084Z,0.00
2023-02-19T05:57:10.094Z,0.00
2023-02-19T05:58:10.052Z,0.00
2023-02-19T05:59:10.099Z,0.00
2023-02-19T06:00:10.032Z,0.00
2023-02-19T06:01:10.243Z,0.00
2023-02-19T06:02:09.940Z,1.00
2023-02-19T06:03:10.027Z,0.00
2023-02-19T06:04:09.983Z,1.00
2023-02-19T06:05:09.960Z,1.00
2023-02-19T06:06:09.899Z,2.00
2023-02-19T06:07:09.910Z,1.00
2023-02-19T06:08:09.865Z,1.00
2023-02-19T06:09:09.876Z,1.00
2023-02-19T06:10:09.848Z,2.00
2023-02-19T06:11:10.162Z,1.00
2023-02-19T06:12:09.805Z,4.00
2023-02-19T06:13:09.834Z,3.00
2023-02-19T06:14:09.798Z,6.00
2023-02-19T06:15:09.841Z,5.00
2023-02-19T06:16:09.824Z,7.00
2023-02-19T06:17:09.793Z,11.00
2023-02-19T06:18:09.773Z,11.00
2023-02-19T06:19:09.767Z,11.00
2023-02-19T06:20:09.712Z,13.00
2023-02-19T06:21:10.008Z,16.00
2023-02-19T06:22:09.705Z,14.00
2023-02-19T06:23:09.680Z,19.00
2023-02-19T06:24:09.672Z,22.00
2023-02-19T06:25:09.680Z,28.00
2023-02-19T06:26:09.640Z,37.00
2023-02-19T06:27:09.680Z,35.00
2023-02-19T06:28:09.607Z,35.00
2023-02-19T06:29:09.610Z,37.00
2023-02-19T06:30:09.590Z,32.00
2023-02-19T06:31:09.967Z,40.00
2023-02-19T06:32:09.689Z,58.00
2023-02-19T06:33:09.578Z,56.00
2023-02-19T06:34:09.543Z,68.00
2023-02-19T06:35:09.540Z,64.00
2023-02-19T06:36:09.513Z,82.00
2023-02-19T06:37:09.560Z,82.00
2023-02-19T06:38:09.477Z,108.00
2023-02-19T06:39:09.484Z,112.00
2023-02-19T06:40:09.477Z,113.00
2023-02-19T06:41:09.804Z,112.00
2023-02-19T06:42:09.449Z,130.00
2023-02-19T06:43:09.426Z,116.00
2023-02-19T06:44:09.446Z,132.00
2023-02-19T06:45:09.446Z,156.00
2023-02-19T06:46:09.434Z,147.00
2023-02-19T06:47:09.375Z,114.00
2023-02-19T06:48:09.344Z,155.00
2023-02-19T06:49:09.374Z,188.00
2023-02-19T06:50:09.322Z,192.00
2023-02-19T06:51:09.788Z,196.00
2023-02-19T06:52:09.321Z,183.00
2023-02-19T06:53:09.331Z,204.00
2023-02-19T06:54:09.272Z,215.00
2023-02-19T06:55:09.310Z,237.00
2023-02-19T06:56:09.276Z,250.00
2023-02-19T06:57:09.285Z,232.00
2023-02-19T06:58:09.228Z,259.00
2023-02-19T06:59:09.221Z,285.00
2023-02-19T07:00:09.199Z,263.00
2023-02-19T07:01:09.690Z,259.00
2023-02-19T07:02:09.158Z,293.00
2023-02-19T07:03:09.217Z,290.00
2023-02-19T07:04:09.216Z,299.00
2023-02-19T07:05:09.163Z,287.00
2023-02-19T07:06:09.116Z,292.00
2023-02-19T07:07:09.154Z,313.00
2023-02-19T07:08:09.084Z,320.00
2023-02-19T07:09:09.084Z,354.00
2023-02-19T07:10:09.061Z,407.00
2023-02-19T07:11:09.455Z,379.00
2023-02-19T07:12:09.057Z,419.00
2023-02-19T07:13:09.094Z,461.00
2023-02-19T07:14:09.012Z,406.00
2023-02-19T07:15:09.010Z,414.00
2023-02-19T07:16:09.004Z,426.00
2023-02-19T07:17:09.026Z,426.00
2023-02-19T07:18:08.958Z,429.00
2023-02-19T07:19:08.951Z,417.00
2023-02-19T07:20:08.922Z,438.00
2023-02-19T07:21:09.201Z,440.00
2023-02-19T07:22:08.912Z,448.00
2023-02-19T07:23:08.900Z,451.00
2023-02-19T07:24:08.869Z,456.00
2023-02-19T07:25:08.881Z,468.00
2023-02-19T07:26:08.899Z,474.00
2023-02-19T07:27:08.879Z,479.00
2023-02-19T07:28:08.861Z,486.00
2023-02-19T07:29:08.819Z,487.00
2023-02-19T07:30:08.920Z,489.00
2023-02-19T07:31:09.142Z,498.00
2023-02-19T07:32:08.834Z,505.00
2023-02-19T07:33:10.562Z,505.00
2023-02-19T07:34:08.756Z,513.00
2023-02-19T07:35:08.755Z,525.00
2023-02-19T07:36:08.718Z,475.00
2023-02-19T07:37:08.759Z,281.00
2023-02-19T07:38:08.701Z,652.00
2023-02-19T07:39:10.207Z,567.00
2023-02-19T07:40:08.654Z,509.00
2023-02-19T07:41:08.774Z,574.00
2023-02-19T07:42:08.639Z,606.00
2023-02-19T07:43:08.666Z,345.00
2023-02-19T07:44:08.615Z,643.00
2023-02-19T07:45:08.617Z,649.00
2023-02-19T07:46:08.586Z,351.00
2023-02-19T07:47:08.584Z,693.00
2023-02-19T07:48:08.555Z,582.00
2023-02-19T07:49:08.610Z,600.00
2023-02-19T07:50:08.568Z,584.00
2023-02-19T07:51:08.836Z,561.00
2023-02-19T07:52:08.505Z,587.00
2023-02-19T07:53:08.523Z,594.00
2023-02-19T07:54:08.476Z,627.00
2023-02-19T07:55:08.493Z,620.00
2023-02-19T07:56:08.518Z,587.00
2023-02-19T07:57:08.540Z,588.00
2023-02-19T07:58:08.419Z,658.00
2023-02-19T07:59:08.501Z,611.00
2023-02-19T08:00:08.402Z,597.00
2023-02-19T08:01:08.670Z,603.00
2023-02-19T08:02:08.371Z,587.00
2023-02-19T08:03:08.400Z,618.00
2023-02-19T08:04:08.337Z,589.00
2023-02-19T08:05:08.396Z,519.00
2023-02-19T08:06:08.327Z,529.00
2023-02-19T08:07:08.319Z,611.00
2023-02-19T08:08:08.316Z,597.00
2023-02-19T08:09:08.327Z,760.00
2023-02-19T08:10:08.287Z,698.00
2023-02-19T08:11:08.582Z,533.00
2023-02-19T08:12:08.235Z,702.00
2023-02-19T08:13:08.290Z,770.00
2023-02-19T08:14:08.212Z,614.00
2023-02-19T08:15:08.399Z,555.00
2023-02-19T08:16:18.364Z,695.00
2023-02-19T08:17:09.260Z,704.00
2023-02-19T08:18:08.170Z,642.00
2023-02-19T08:19:08.200Z,647.00
2023-02-19T08:20:08.131Z,709.00
2023-02-19T08:21:09.341Z,843.00
2023-02-19T08:22:08.252Z,597.00
2023-02-19T08:23:08.117Z,715.00
2023-02-19T08:24:08.139Z,764.00
2023-02-19T08:25:08.095Z,775.00
2023-02-19T08:26:08.085Z,849.00
2023-02-19T08:27:08.059Z,750.00
2023-02-19T08:28:08.106Z,744.00
2023-02-19T08:29:08.109Z,782.00
2023-02-19T08:30:08.035Z,778.00
2023-02-19T08:31:08.209Z,706.00
2023-02-19T08:32:08.076Z,875.00
2023-02-19T08:33:08.045Z,828.00
2023-02-19T08:34:07.950Z,879.00
2023-02-19T08:35:08.395Z,805.00
2023-02-19T08:36:08.014Z,833.00
2023-02-19T08:37:07.939Z,799.00
2023-02-19T08:38:07.906Z,812.00
2023-02-19T08:39:07.900Z,864.00
2023-02-19T08:40:07.870Z,868.00
2023-02-19T08:41:08.310Z,941.00
2023-02-19T08:42:07.970Z,816.00
2023-02-19T08:43:07.899Z,915.00
2023-02-19T08:44:07.931Z,853.00
2023-02-19T08:45:07.856Z,823.00
2023-02-19T08:46:07.825Z,1004.00
2023-02-19T08:47:07.895Z,896.00
2023-02-19T08:48:07.772Z,838.00
2023-02-19T08:49:07.822Z,959.00
2023-02-19T08:50:07.751Z,973.00
2023-02-19T08:51:07.772Z,958.00
2023-02-19T08:52:07.750Z,946.00
2023-02-19T08:53:07.728Z,828.00
2023-02-19T08:54:07.780Z,938.00
2023-02-19T08:55:07.705Z,953.00
2023-02-19T08:56:07.691Z,1051.00
2023-02-19T08:57:07.689Z,939.00
2023-02-19T08:58:07.645Z,1005.00
2023-02-19T08:59:08.446Z,997.00
2023-02-19T09:00:07.668Z,916.00
2023-02-19T09:01:07.660Z,925.00
2023-02-19T09:02:07.624Z,953.00
2023-02-19T09:03:08.235Z,677.00
2023-02-19T09:04:07.583Z,892.00
2023-02-19T09:05:07.614Z,941.00
2023-02-19T09:06:07.744Z,1023.00
2023-02-19T09:07:07.542Z,1043.00
2023-02-19T09:08:07.522Z,848.00
2023-02-19T09:09:07.545Z,931.00
2023-02-19T09:10:07.550Z,1026.00
2023-02-19T09:11:07.499Z,1061.00
2023-02-19T09:12:07.472Z,1008.00
2023-02-19T09:13:07.602Z,1071.00
2023-02-19T09:14:07.533Z,1140.00
2023-02-19T09:15:07.474Z,1022.00
2023-02-19T09:16:07.476Z,1014.00
2023-02-19T09:17:09.346Z,1043.00
2023-02-19T09:18:07.368Z,965.00
2023-02-19T09:19:09.116Z,1053.00
2023-02-19T09:20:07.346Z,1139.00
2023-02-19T09:21:07.381Z,963.00
2023-02-19T09:22:07.349Z,1022.00
2023-02-19T09:23:07.336Z,970.00
2023-02-19T09:24:09.274Z,882.00
2023-02-19T09:25:07.316Z,862.00
2023-02-19T09:26:07.301Z,819.00
2023-02-19T09:27:07.276Z,825.00
2023-02-19T09:28:07.253Z,848.00
2023-02-19T09:29:07.277Z,909.00
2023-02-19T09:30:07.380Z,840.00
2023-02-19T09:31:07.244Z,794.00
2023-02-19T09:32:07.306Z,806.00
2023-02-19T09:33:07.195Z,980.00
2023-02-19T09:34:07.200Z,868.00
2023-02-19T09:35:07.186Z,909.00
2023-02-19T09:36:07.183Z,916.00
2023-02-19T09:37:07.957Z,737.00
2023-02-19T09:38:07.165Z,1049.00
2023-02-19T09:39:07.099Z,1012.00
2023-02-19T09:40:14.208Z,1066.00
2023-02-19T09:41:07.090Z,979.00
2023-02-19T09:42:07.104Z,1006.00
2023-02-19T09:43:07.058Z,849.00
2023-02-19T09:44:07.084Z,931.00
2023-02-19T09:45:07.026Z,1080.00
2023-02-19T09:46:07.089Z,1035.00
2023-02-19T09:47:07.001Z,998.00
2023-02-19T09:48:07.041Z,1030.00
2023-02-19T09:49:06.993Z,964.00
2023-02-19T09:50:06.993Z,947.00
2023-02-19T09:51:06.941Z,1043.00
2023-02-19T09:52:06.983Z,1044.00
2023-02-19T09:53:06.925Z,874.00
2023-02-19T09:54:06.935Z,905.00
2023-02-19T09:55:06.931Z,912.00
2023-02-19T09:56:06.919Z,974.00
2023-02-19T09:57:06.913Z,1091.00
2023-02-19T09:58:06.875Z,1060.00
2023-02-19T09:59:06.835Z,1137.00
2023-02-19T10:00:09.064Z,1123.00
2023-02-19T10:01:06.817Z,1057.00
2023-02-19T10:02:06.853Z,1181.00
2023-02-19T10:03:06.798Z,1187.00
2023-02-19T10:04:06.812Z,1133.00
2023-02-19T10:05:06.811Z,1155.00
2023-02-19T10:06:08.246Z,1111.00
2023-02-19T10:07:06.741Z,1219.00
2023-02-19T10:08:06.793Z,1224.00
2023-02-19T10:09:06.731Z,1225.00
2023-02-19T10:10:06.744Z,1217.00
2023-02-19T10:11:06.720Z,1214.00
2023-02-19T10:12:07.959Z,1245.00
2023-02-19T10:13:06.647Z,1254.00
2023-02-19T10:14:06.676Z,1354.00
2023-02-19T10:15:06.635Z,1388.00
2023-02-19T10:16:06.757Z,1259.00
2023-02-19T10:17:06.665Z,1256.00
2023-02-19T10:18:06.980Z,1355.00
2023-02-19T10:19:06.584Z,1337.00
2023-02-19T10:20:06.627Z,1458.00
2023-02-19T10:21:06.572Z,1346.00
2023-02-19T10:22:06.572Z,1165.00
2023-02-19T10:23:06.569Z,1193.00
2023-02-19T10:24:06.529Z,1222.00
2023-02-19T10:25:06.501Z,1282.00
2023-02-19T10:26:06.509Z,907.00
2023-02-19T10:27:06.478Z,1124.00
2023-02-19T10:28:06.479Z,849.00
2023-02-19T10:29:06.479Z,1173.00
2023-02-19T10:30:06.508Z,721.00
2023-02-19T10:31:06.445Z,1192.00
2023-02-19T10:32:06.456Z,909.00
2023-02-19T10:33:06.411Z,740.00
2023-02-19T10:34:06.412Z,1064.00
2023-02-19T10:35:06.398Z,883.00
2023-02-19T10:36:06.422Z,1110.00
2023-02-19T10:37:06.366Z,585.00
2023-02-19T10:38:06.346Z,862.00
2023-02-19T10:39:06.332Z,832.00
2023-02-19T10:40:06.337Z,819.00
2023-02-19T10:41:06.366Z,829.00
2023-02-19T10:42:06.296Z,838.00
2023-02-19T10:43:06.278Z,843.00
2023-02-19T10:44:06.286Z,825.00
2023-02-19T10:45:06.248Z,832.00
2023-02-19T10:46:06.300Z,821.00
2023-02-19T10:47:06.244Z,829.00
2023-02-19T10:48:06.223Z,828.00
2023-02-19T10:49:06.193Z,827.00
2023-02-19T10:50:06.201Z,821.00
2023-02-19T10:51:06.163Z,830.00
2023-02-19T10:52:06.171Z,825.00
2023-02-19T10:53:06.180Z,811.00
2023-02-19T10:54:06.155Z,833.00
2023-02-19T10:55:06.098Z,998.00
2023-02-19T10:56:06.112Z,762.00
2023-02-19T10:57:06.072Z,976.00
2023-02-19T10:58:06.081Z,1184.00
2023-02-19T10:59:06.075Z,797.00
2023-02-19T11:00:06.047Z,903.00
2023-02-19T11:01:06.296Z,933.00
2023-02-19T11:02:06.028Z,1001.00
2023-02-19T11:03:05.986Z,979.00
2023-02-19T11:04:06.062Z,898.00
2023-02-19T11:05:05.995Z,909.00
2023-02-19T11:06:06.021Z,902.00
2023-02-19T11:07:05.942Z,899.00
2023-02-19T11:08:05.965Z,876.00
2023-02-19T11:09:05.923Z,618.00
2023-02-19T11:10:05.930Z,1102.00
2023-02-19T11:11:05.909Z,834.00
2023-02-19T11:12:08.346Z,992.00
2023-02-19T11:13:05.893Z,893.00
2023-02-19T11:14:05.888Z,889.00
2023-02-19T11:15:05.881Z,1041.00
2023-02-19T11:16:05.882Z,920.00
2023-02-19T11:17:05.845Z,917.00
2023-02-19T11:18:05.845Z,950.00
2023-02-19T11:19:05.797Z,912.00
2023-02-19T11:20:05.836Z,943.00
2023-02-19T11:21:05.779Z,869.00
2023-02-19T11:22:05.775Z,637.00
2023-02-19T11:23:05.736Z,638.00
2023-02-19T11:24:05.758Z,1271.00
2023-02-19T11:25:05.718Z,915.00
2023-02-19T11:26:05.743Z,677.00
2023-02-19T11:27:05.690Z,960.00
2023-02-19T11:28:05.690Z,573.00
2023-02-19T11:29:05.662Z,774.00
2023-02-19T11:30:05.750Z,1187.00
2023-02-19T11:31:05.734Z,844.00
2023-02-19T11:32:05.732Z,777.00
2023-02-19T11:33:05.603Z,623.00
2023-02-19T11:34:05.630Z,1203.00
2023-02-19T11:35:05.592Z,1168.00
2023-02-19T11:36:05.621Z,1420.00
2023-02-19T11:37:05.579Z,1495.00
2023-02-19T11:38:05.573Z,1349.00
2023-02-19T11:39:05.540Z,1513.00
2023-02-19T11:40:05.551Z,1415.00
2023-02-19T11:41:05.532Z,1325.00
2023-02-19T11:42:05.528Z,1330.00
2023-02-19T11:43:05.481Z,994.00
2023-02-19T11:44:05.505Z,998.00
2023-02-19T11:45:05.453Z,905.00
2023-02-19T11:46:05.464Z,872.00
2023-02-19T11:47:05.475Z,952.00
2023-02-19T11:48:05.473Z,936.00
2023-02-19T11:49:05.405Z,431.00
2023-02-19T11:50:05.423Z,945.00
2023-02-19T11:51:05.375Z,1257.00
2023-02-19T11:52:05.396Z,949.00
2023-02-19T11:53:05.381Z,979.00
2023-02-19T11:54:05.364Z,1256.00
2023-02-19T11:55:05.316Z,1035.00
2023-02-19T11:56:05.341Z,1282.00
2023-02-19T11:57:05.286Z,1084.00
2023-02-19T11:58:05.312Z,1406.00
2023-02-19T11:59:05.333Z,1409.00
2023-02-19T12:00:05.302Z,914.00
2023-02-19T12:01:05.332Z,1110.00
2023-02-19T12:02:05.312Z,1118.00
2023-02-19T12:03:05.217Z,1598.00
2023-02-19T12:04:05.220Z,1480.00
2023-02-19T12:05:05.264Z,1235.00
2023-02-19T12:06:05.195Z,1292.00
2023-02-19T12:07:05.190Z,1250.00
2023-02-19T12:08:05.176Z,1392.00
2023-02-19T12:09:05.128Z,1406.00
2023-02-19T12:10:05.136Z,1714.00
2023-02-19T12:11:05.112Z,1489.00
2023-02-19T12:12:05.134Z,1536.00
2023-02-19T12:13:05.114Z,995.00
2023-02-19T12:14:05.113Z,1496.00
2023-02-19T12:15:05.062Z,1420.00
2023-02-19T12:16:05.112Z,1523.00
2023-02-19T12:17:05.324Z,1812.00
2023-02-19T12:18:05.037Z,1630.00
2023-02-19T12:19:05.004Z,1319.00
2023-02-19T12:20:05.041Z,1644.00
2023-02-19T12:21:05.029Z,1567.00
2023-02-19T12:22:05.000Z,1339.00
2023-02-19T12:23:04.948Z,1457.00
2023-02-19T12:24:04.968Z,1485.00
2023-02-19T12:25:04.927Z,1929.00
2023-02-19T12:26:04.966Z,1376.00
2023-02-19T12:27:04.896Z,1409.00
2023-02-19T12:28:04.916Z,1450.00
2023-02-19T12:29:04.903Z,1494.00
2023-02-19T12:30:04.915Z,1457.00
2023-02-19T12:31:04.873Z,1684.00
2023-02-19T12:32:04.942Z,1733.00
2023-02-19T12:33:04.814Z,1459.00
2023-02-19T12:34:04.832Z,1495.00
2023-02-19T12:35:04.802Z,1248.00
2023-02-19T12:36:04.811Z,1567.00
2023-02-19T12:37:04.766Z,1762.00
2023-02-19T12:38:04.825Z,1698.00
2023-02-19T12:39:04.753Z,1341.00
2023-02-19T12:40:04.749Z,1371.00
2023-02-19T12:41:04.713Z,1362.00
2023-02-19T12:42:04.756Z,1367.00
2023-02-19T12:43:04.718Z,1175.00
2023-02-19T12:44:04.760Z,1119.00
2023-02-19T12:45:05.448Z,1257.00
2023-02-19T12:46:04.720Z,1168.00
2023-02-19T12:47:04.636Z,1260.00
2023-02-19T12:48:04.645Z,1349.00